Date,TemperatureHighF,TemperatureAvgF,TemperatureLowF,DewpointHighF,DewpointAvgF,DewpointLowF,HumidityHigh,HumidityAvg,HumidityLow,PressureMaxIn,PressureMinIn,WindSpeedMaxMPH,WindSpeedAvgMPH,GustSpeedMaxMPH,PrecipitationSumIn
2013-1-1,26,15,7,15,5,-5,95,67,28,0.00,40.00,12,4,18,0.00
2013-1-2,19,14,10,6,-3,-14,72,48,24,0.00,40.00,14,8,23,0.00
2013-1-3,46,27,11,1,-13,-26,36,18,5,0.00,40.00,4,3,10,0.00
2013-1-4,43,31,18,5,-7,-21,44,22,9,0.00,40.00,5,3,8,0.00
2013-1-5,31,20,11,13,-1,-31,61,43,7,0.00,40.00,5,3,8,0.00
2013-1-6,43,33,27,11,-6,-25,45,20,7,0.00,40.00,11,4,19,0.00
2013-1-7,35,27,18,15,7,3,59,43,27,0.00,40.00,11,6,20,0.00
2013-1-8,30,25,21,13,10,6,67,52,43,0.00,40.00,12,7,22,0.00
2013-1-9,47,38,29,15,6,-8,55,29,13,0.00,40.00,22,11,29,0.00
2013-1-10,42,35,23,20,8,-9,89,38,11,0.00,40.00,20,12,31,0.00
2013-1-11,23,4,-6,21,2,-10,94,87,76,0.00,40.00,7,2,15,0.00
2013-1-12,5,-3,-8,-1,-7,-12,90,82,72,0.00,40.00,4,2,6,0.00
2013-1-13,1,-6,-13,-5,-11,-17,86,80,71,0.00,40.00,4,2,6,0.00
2013-1-14,12,0,-9,-8,-13,-17,76,56,30,0.00,40.00,7,3,10,0.00
2013-1-15,32,24,5,28,16,-5,99,72,59,0.00,40.00,12,7,22,0.00
2013-1-16,38,29,18,17,12,6,66,50,30,0.00,40.00,11,5,19,0.00
2013-1-17,43,29,18,13,6,-1,68,42,21,0.00,40.00,14,6,19,0.00
2013-1-18,43,36,32,4,0,-6,29,21,16,0.00,40.00,14,9,21,0.00
2013-1-19,36,30,25,13,1,-10,49,29,15,0.00,40.00,20,8,28,0.00
2013-1-20,30,23,11,20,8,-5,100,59,21,0.00,40.00,13,7,23,0.00
2013-1-21,40,32,28,12,5,-8,48,32,21,0.00,40.00,20,11,30,0.00
2013-1-22,40,33,25,6,-6,-15,31,19,9,0.00,40.00,14,5,20,0.00
2013-1-23,47,41,37,-6,-10,-12,15,11,8,0.00,40.00,12,6,20,0.00
2013-1-24,42,35,24,19,8,-10,78,36,11,0.00,40.00,12,5,21,0.00
2013-1-25,41,33,27,14,6,-4,48,31,20,0.00,40.00,13,4,21,0.00
2013-1-26,42,35,30,20,16,7,63,47,33,0.00,40.00,11,5,20,0.00
2013-1-27,37,27,16,24,18,14,100,73,43,0.00,40.00,6,4,10,0.00
2013-1-28,17,13,5,16,11,1,95,92,75,0.00,40.00,6,2,9,0.00
2013-1-29,20,9,2,7,-3,-14,81,59,41,0.00,40.00,10,6,15,0.00
2013-1-30,23,14,5,16,6,-14,97,69,39,0.00,40.00,13,7,22,0.00
2013-1-31,28,20,7,19,12,-2,93,71,51,0.00,40.00,14,6,28,0.00
2013-2-1,29,24,19,22,15,5,97,71,47,0.00,40.00,11,5,24,0.00
2013-2-2,33,22,16,15,9,-3,76,58,21,0.00,40.00,14,4,24,0.00
2013-2-3,39,30,20,11,1,-9,69,33,13,0.00,40.00,13,6,21,0.00
2013-2-4,35,28,22,14,9,3,59,45,36,0.00,40.00,10,6,25,0.00
2013-2-5,38,26,16,22,16,7,96,64,40,0.00,40.00,6,3,15,0.00
2013-2-6,30,24,15,19,10,0,94,57,30,0.00,40.00,7,4,12,0.00
2013-2-7,37,23,10,5,-6,-17,71,34,12,0.00,40.00,11,5,15,0.00
2013-2-8,32,25,17,13,-4,-19,78,31,13,0.00,40.00,8,4,13,0.00
2013-2-9,24,18,13,19,14,7,97,85,63,0.00,40.00,7,3,11,0.00
2013-2-10,18,10,-1,9,4,-5,94,80,49,0.00,40.00,8,4,20,0.00
2013-2-11,30,10,-2,4,-5,-13,74,53,22,0.00,40.00,5,3,15,0.00
2013-2-12,27,18,11,12,5,-17,80,58,21,0.00,40.00,6,3,7,0.00
2013-2-13,30,24,15,20,13,8,97,65,43,0.00,40.00,12,6,26,0.00
2013-2-14,18,12,8,17,6,-2,96,77,43,0.00,40.00,10,6,18,0.00
2013-2-15,30,18,8,16,10,-1,92,73,39,0.00,40.00,14,6,23,0.00
2013-2-16,42,30,21,19,11,-2,71,47,17,0.00,40.00,10,5,19,0.00
2013-2-17,34,24,14,21,7,-4,88,51,20,0.00,40.00,14,8,24,0.00
2013-2-18,17,12,4,13,7,-6,95,81,45,0.00,40.00,8,3,12,0.00
2013-2-19,38,24,6,4,-9,-28,54,26,7,0.00,40.00,7,4,12,0.00
2013-2-20,32,21,11,10,3,-1,74,48,24,0.00,40.00,5,3,7,0.00
2013-2-21,21,14,6,13,7,-2,97,76,48,0.00,40.00,5,3,6,0.00
2013-2-22,23,13,4,9,3,-7,89,64,43,0.00,40.00,7,4,12,0.00
2013-2-23,25,20,11,21,13,-1,97,73,46,0.00,40.00,8,4,13,0.00
2013-2-24,24,15,10,8,4,-8,81,64,41,0.00,40.00,8,4,11,0.00
2013-2-25,35,21,8,15,0,-20,77,42,13,0.00,40.00,7,3,9,0.00
2013-2-26,24,17,9,17,7,-3,97,67,39,0.00,40.00,10,4,14,0.00
2013-2-27,24,15,6,9,2,-4,68,56,46,0.00,40.00,7,4,13,0.00
2013-2-28,26,21,16,13,3,-24,62,46,27,0.00,40.00,14,6,20,0.00
2013-3-1,38,29,17,27,12,-24,79,53,11,0.00,40.00,16,5,23,0.00
2013-3-2,45,36,27,18,15,9,57,43,23,0.00,40.00,11,5,18,0.00
2013-3-3,38,31,15,26,18,13,99,61,42,0.00,40.00,11,5,17,0.00
2013-3-4,15,11,2,13,-6,-20,95,48,22,0.00,40.00,16,8,26,0.00
2013-3-5,30,19,4,9,-8,-23,45,30,14,0.00,40.00,6,3,15,0.00
2013-3-6,43,34,25,21,8,-7,64,33,20,0.00,40.00,19,9,27,0.00
2013-3-7,36,29,21,25,17,13,83,63,44,0.00,40.00,13,5,18,0.00
2013-3-8,38,28,19,25,21,14,94,75,48,0.00,40.00,6,3,8,0.00
2013-3-9,25,22,18,21,12,0,91,68,41,0.00,40.00,13,7,19,0.00
2013-3-10,37,29,18,17,7,-14,58,41,19,0.00,40.00,5,4,17,0.00
2013-3-11,29,22,12,19,12,1,92,68,31,0.00,40.00,13,6,26,0.00
2013-3-12,34,20,8,18,12,5,93,71,49,0.00,40.00,9,4,16,0.00
2013-3-13,48,39,32,21,18,16,56,42,28,0.00,40.00,15,8,21,0.00
2013-3-14,51,42,36,23,19,16,51,40,28,0.00,40.00,11,6,18,0.00
2013-3-15,49,41,28,25,16,10,87,40,22,0.00,40.00,14,6,21,0.00
2013-3-16,34,28,24,29,25,18,100,89,76,0.00,40.00,6,3,8,0.00
2013-3-17,31,24,14,20,12,-4,85,60,38,0.00,40.00,20,9,34,0.00
2013-3-18,20,15,11,10,1,-5,86,54,36,0.00,40.00,12,6,21,0.00
2013-3-19,22,15,8,13,5,-6,96,69,30,0.00,40.00,10,5,15,0.00
2013-3-20,40,29,15,22,5,-14,57,36,18,0.00,40.00,14,7,21,0.00
2013-3-21,34,26,15,25,18,3,96,74,47,0.00,40.00,8,4,15,0.00
2013-3-22,24,12,4,13,7,0,93,82,59,0.00,40.00,6,3,12,0.00
2013-3-23,21,6,-4,7,-1,-12,90,74,42,0.00,40.00,6,3,7,0.00
2013-3-24,15,5,-3,4,-4,-15,95,66,34,0.00,40.00,13,5,19,0.00
2013-3-25,27,15,1,12,-3,-18,73,46,20,0.00,40.00,6,3,9,0.00
2013-3-26,34,25,17,4,-6,-18,53,27,12,0.00,40.00,7,4,10,0.00
2013-3-27,41,28,18,18,11,0,62,49,36,0.00,40.00,6,4,10,0.04
2013-3-28,46,38,31,22,18,14,62,45,33,0.00,40.00,8,4,12,0.01
2013-3-29,45,36,30,31,21,11,95,56,26,0.00,40.00,10,4,15,0.00
2013-3-30,39,32,27,30,22,11,100,69,34,0.00,40.00,8,4,15,0.06
2013-3-31,44,34,23,24,16,6,88,50,25,0.00,40.00,14,6,22,0.01
2013-4-1,38,28,20,23,16,8,93,64,30,0.00,40.00,6,3,9,0.00
2013-4-2,46,35,23,18,13,4,68,42,29,0.00,40.00,6,4,10,0.00
2013-4-3,48,40,30,26,18,8,81,42,30,0.00,40.00,11,5,16,0.00
2013-4-4,49,42,31,29,23,18,81,48,31,0.00,40.00,11,7,20,0.00
2013-4-5,51,41,31,36,26,18,98,57,32,0.00,40.00,16,6,23,0.01
2013-4-6,45,36,31,29,22,15,77,55,33,0.00,40.00,9,6,18,0.01
2013-4-7,46,36,29,30,22,14,88,60,33,0.00,40.00,9,5,17,0.01
2013-4-8,30,21,10,28,18,7,100,90,73,0.00,40.00,8,4,13,0.00
2013-4-9,17,8,1,13,6,-2,92,88,80,0.00,40.00,5,3,9,0.00
2013-4-10,33,22,9,26,14,7,91,73,50,0.00,40.00,13,4,20,0.03
2013-4-11,36,31,26,26,22,16,94,71,46,0.00,40.00,12,7,20,0.02
2013-4-12,32,26,19,23,15,3,99,69,31,0.00,40.00,11,5,18,0.00
2013-4-13,46,33,23,28,18,11,93,55,34,0.00,40.00,16,7,28,0.02
2013-4-14,25,20,10,18,7,0,90,61,38,0.00,40.00,11,6,19,0.01
2013-4-15,16,10,2,10,6,0,95,85,70,0.00,40.00,6,3,8,0.00
2013-4-16,15,10,6,10,6,1,92,84,75,0.00,40.00,6,4,9,0.00
2013-4-17,19,10,1,15,7,-4,95,87,73,0.00,40.00,6,3,10,0.00
2013-4-18,30,17,-1,17,5,-6,86,61,32,0.00,40.00,10,4,16,0.00
2013-4-19,35,28,20,23,16,9,82,63,48,0.00,40.00,9,4,13,0.01
2013-4-20,38,32,25,34,24,19,100,73,51,0.00,40.00,9,4,14,0.01
2013-4-21,33,26,16,30,24,14,100,93,79,0.00,40.00,6,4,10,0.02
2013-4-22,16,11,0,14,8,-4,95,90,83,0.00,40.00,6,4,11,0.02
2013-4-23,29,15,-1,20,4,-6,89,65,35,0.00,40.00,5,3,7,0.00
2013-4-24,33,25,15,26,10,0,84,55,34,0.00,40.00,11,6,20,0.00
2013-4-25,45,36,29,14,8,0,46,30,17,0.00,40.00,10,6,20,0.04
2013-4-26,53,42,32,25,15,7,50,34,21,0.00,40.00,9,5,15,0.01
2013-4-27,54,47,38,19,16,12,41,29,22,0.00,40.00,14,8,21,0.00
2013-4-28,47,40,34,39,27,15,98,64,27,0.00,40.00,7,4,13,0.01
2013-4-29,51,43,35,32,22,17,80,46,27,0.00,40.00,16,8,26,0.01
2013-4-30,26,22,18,24,20,16,99,94,90,0.00,40.00,8,5,11,0.00
2013-5-1,26,19,13,20,15,7,96,85,62,0.00,40.00,5,3,8,0.00
2013-5-2,43,29,13,19,11,3,78,48,28,0.00,40.00,8,4,10,0.23
2013-5-3,47,40,34,31,15,5,87,39,24,0.00,40.00,6,4,10,0.05
2013-5-4,36,33,30,34,30,26,100,90,80,0.00,40.00,5,3,8,0.14
2013-5-5,44,36,25,28,23,19,94,61,37,0.00,40.00,6,3,10,0.03
2013-5-6,53,43,31,29,24,20,71,49,33,0.00,40.00,7,4,11,0.00
2013-5-7,59,46,34,30,24,15,61,43,26,0.00,40.00,7,5,15,0.00
2013-5-8,53,45,38,31,26,20,67,47,29,0.00,40.00,11,6,15,0.00
2013-5-9,52,42,34,38,29,22,83,62,33,0.00,40.00,11,5,17,0.04
2013-5-10,56,45,32,38,26,-100,85,53,24,0.00,40.00,11,7,16,0.03
2013-5-11,56,44,31,34,29,20,93,58,29,0.00,40.00,8,4,12,0.02
2013-5-12,63,55,44,37,29,24,75,38,25,0.00,40.00,10,7,16,0.00
2013-5-13,69,62,54,32,28,24,38,28,18,0.00,40.00,12,7,18,0.00
2013-5-14,68,58,47,45,31,15,77,40,13,0.00,40.00,12,6,22,0.00
2013-5-15,62,50,40,39,35,27,82,58,40,0.00,40.00,7,4,10,0.00
2013-5-16,56,46,43,44,20,-100,99,68,47,0.00,40.00,8,4,16,0.00
2013-5-17,53,46,42,48,34,-100,100,77,50,0.00,40.00,11,5,20,0.08
2013-5-18,51,41,37,42,36,30,100,85,61,0.00,40.00,10,4,13,0.03
2013-5-19,50,40,36,39,36,32,100,88,62,0.00,40.00,9,5,16,0.12
2013-5-20,40,35,33,33,29,23,100,80,50,0.00,40.00,14,8,21,0.27
2013-5-21,50,41,32,35,25,3,100,61,15,0.00,40.00,9,5,12,0.01
2013-5-22,50,43,30,41,30,15,100,64,34,0.00,40.00,7,4,11,0.00
2013-5-23,62,47,36,44,38,24,100,76,24,0.00,40.00,11,8,18,0.00
2013-5-24,58,49,40,42,26,6,100,52,13,0.00,40.00,10,5,17,0.00
2013-5-25,65,55,43,40,17,3,89,25,15,0.00,40.00,10,6,17,0.00
2013-5-26,59,50,41,45,34,19,91,55,32,0.00,40.00,9,5,16,0.03
2013-5-27,56,48,42,40,30,17,89,53,28,0.00,40.00,12,6,30,0.03
2013-5-28,55,45,36,38,30,19,83,56,29,0.00,40.00,10,4,15,0.04
2013-5-29,47,41,38,42,39,36,100,93,81,0.00,40.00,6,3,11,0.53
2013-5-30,43,40,37,38,32,26,100,76,58,0.00,40.00,14,6,20,0.25
2013-5-31,45,40,36,30,27,24,73,59,48,0.00,40.00,14,8,23,0.01
2013-6-1,46,40,30,38,32,20,94,72,38,0.00,40.00,11,5,19,0.00
2013-6-2,62,51,39,42,32,25,70,49,24,0.00,40.00,8,4,16,0.00
2013-6-3,58,48,42,39,27,21,78,45,27,0.00,40.00,16,9,24,0.02
2013-6-4,42,35,31,39,32,24,100,92,50,0.00,40.00,7,4,13,0.02
2013-6-5,50,40,27,37,33,27,100,79,59,0.00,40.00,6,3,11,0.02
2013-6-6,59,50,39,41,35,24,84,56,40,0.00,40.00,10,5,14,0.00
2013-6-7,66,56,43,50,36,29,81,49,28,0.00,40.00,9,6,16,0.01
2013-6-8,58,49,42,41,36,19,94,63,22,0.00,40.00,12,6,21,0.09
2013-6-9,71,59,43,40,31,21,85,40,18,0.00,40.00,9,6,17,0.00
2013-6-10,65,62,52,47,38,27,79,44,25,0.00,40.00,14,6,19,0.00
2013-6-11,66,56,45,57,46,31,99,71,37,0.00,40.00,12,4,27,0.05
2013-6-12,62,55,45,54,46,35,100,73,53,0.00,40.00,8,5,11,0.39
2013-6-13,70,58,46,51,42,34,96,62,29,0.00,40.00,15,7,21,0.38
2013-6-14,58,49,36,44,33,15,95,59,21,0.00,40.00,13,6,21,0.00
2013-6-15,63,49,34,37,29,5,94,52,10,0.00,40.00,7,4,12,0.00
2013-6-16,63,53,42,41,35,18,78,53,19,0.00,40.00,9,4,14,0.00
2013-6-17,61,53,43,49,43,37,85,71,51,0.00,40.00,6,4,10,0.00
2013-6-18,64,52,45,45,40,28,91,64,31,0.00,40.00,10,5,16,0.13
2013-6-19,75,65,52,41,24,7,65,26,8,0.00,40.00,19,11,27,0.01
2013-6-20,60,57,54,40,14,4,59,20,11,0.00,40.00,23,15,32,0.00
2013-6-22,55,45,40,49,41,36,100,88,51,0.00,40.00,7,4,15,0.53
2013-6-23,62,48,37,44,35,24,100,64,23,0.00,40.00,9,5,16,0.29
2013-6-24,71,59,46,40,30,23,57,36,19,0.00,40.00,11,6,26,0.00
2013-6-25,65,58,50,49,35,26,79,44,28,0.00,40.00,10,6,19,0.00
2013-6-26,71,62,53,49,39,30,71,45,30,0.00,40.00,8,5,17,0.00
2013-6-27,72,61,50,50,44,33,86,58,26,0.00,40.00,10,4,15,0.00
2013-6-28,68,61,51,53,49,44,87,64,48,0.00,40.00,6,4,9,0.00
2013-6-29,69,62,52,55,49,43,78,64,51,0.00,40.00,5,3,9,0.05
2013-6-30,67,60,52,52,47,41,84,63,42,0.00,40.00,6,4,10,0.05
2013-7-1,69,61,51,50,46,36,80,58,47,0.00,40.00,6,4,10,0.00
2013-7-2,72,61,49,50,44,38,86,56,31,0.00,40.00,6,4,10,0.00
2013-7-3,75,67,54,49,42,36,59,41,24,0.00,40.00,11,7,16,0.00
2013-7-4,70,62,51,58,49,27,98,64,33,0.00,40.00,7,4,18,0.74
2013-7-5,67,57,49,52,49,46,100,75,52,0.00,40.00,9,4,15,0.35
2013-7-6,66,58,53,55,46,38,83,64,48,0.00,40.00,8,4,10,0.01
2013-7-7,72,63,53,50,43,29,84,52,21,0.00,40.00,9,5,17,0.00
2013-7-8,71,61,53,48,42,34,80,53,27,0.00,40.00,18,5,26,0.00
2013-7-9,66,59,50,49,44,33,82,57,43,0.00,40.00,6,4,10,0.00
2013-7-10,77,64,50,47,40,-100,86,47,17,0.00,40.00,6,4,15,0.00
2013-7-11,82,69,55,46,36,23,62,35,13,0.00,40.00,12,6,19,0.00
2013-7-12,64,59,54,52,47,41,81,64,45,0.00,40.00,7,4,15,0.00
2013-7-13,77,64,53,48,34,21,77,37,14,0.00,40.00,7,4,14,0.00
2013-7-14,68,58,49,52,48,38,100,72,43,0.00,40.00,6,4,10,0.01
2013-7-15,78,64,54,49,40,23,81,46,13,0.00,40.00,8,4,12,0.01
2013-7-16,70,64,53,54,52,50,95,67,53,0.00,40.00,7,5,10,0.00
2013-7-17,74,65,53,52,46,38,91,52,32,0.00,40.00,7,4,10,0.00
2013-7-18,73,66,58,51,46,35,66,50,37,0.00,40.00,6,4,14,0.00
2013-7-19,75,65,53,47,43,38,75,48,32,0.00,40.00,7,4,13,0.00
2013-7-20,72,62,53,42,38,-100,57,42,30,0.00,40.00,5,4,10,0.00
2013-7-21,75,64,51,43,36,25,68,39,20,0.00,40.00,8,4,11,0.00
2013-7-22,80,64,50,38,30,10,54,32,7,0.00,40.00,13,6,18,0.00
2013-7-23,72,63,52,38,34,29,56,35,24,0.00,40.00,6,4,11,0.00
2013-7-24,76,62,49,44,39,31,67,46,19,0.00,40.00,10,5,14,0.00
2013-7-25,64,57,48,53,45,38,85,65,48,0.00,40.00,7,4,11,0.23
2013-7-26,68,60,47,47,44,34,86,59,38,0.00,40.00,7,4,11,0.01
2013-7-27,69,59,52,49,42,32,83,55,30,0.00,40.00,11,5,16,0.63
2013-7-28,67,57,49,49,43,35,93,62,43,0.00,40.00,5,3,11,0.05
2013-7-29,59,54,48,53,46,34,89,76,41,0.00,40.00,8,4,12,0.01
2013-7-30,67,58,49,49,41,30,87,57,25,0.00,40.00,13,6,23,0.10
2013-7-31,68,59,47,48,44,38,90,60,47,0.00,40.00,5,4,9,0.01
2013-8-1,71,60,50,49,42,36,82,54,34,0.00,40.00,8,4,12,0.15
2013-8-2,69,55,47,57,46,29,100,76,23,0.00,40.00,7,4,13,0.15
2013-8-3,66,58,49,57,51,45,91,78,62,0.00,40.00,8,4,11,0.00
2013-8-4,74,59,52,56,48,29,89,71,19,0.00,40.00,6,4,16,0.04
2013-8-5,75,58,48,53,44,24,99,69,15,0.00,40.00,10,5,16,0.04
2013-8-6,65,56,47,44,41,36,69,56,45,0.00,40.00,6,4,21,0.00
2013-8-7,71,57,45,48,41,36,80,59,33,0.00,40.00,6,4,15,0.00
2013-8-8,65,56,48,47,43,35,87,65,34,0.00,40.00,6,4,12,0.06
2013-8-9,59,53,47,51,46,41,92,80,57,0.00,40.00,5,3,13,0.35
2013-8-10,69,59,47,47,42,31,98,57,41,0.00,40.00,8,5,12,0.01
2013-8-11,69,60,50,44,36,30,64,41,26,0.00,40.00,10,4,14,0.03
2013-8-12,68,60,50,40,34,29,63,40,26,0.00,40.00,7,4,17,0.01
2013-8-13,69,54,47,49,35,-100,80,51,35,0.00,40.00,10,5,16,0.16
2013-8-14,66,55,45,42,33,-100,67,49,36,0.00,40.00,6,4,10,0.01
2013-8-15,72,58,51,43,28,-100,58,40,27,0.00,40.00,6,4,9,0.00
2013-8-16,80,65,54,36,25,-100,49,27,10,0.00,40.00,7,4,12,0.00
2013-8-17,79,68,58,37,27,-100,46,25,11,0.00,40.00,9,4,13,0.00
2013-8-18,76,64,55,47,37,27,70,39,18,0.00,40.00,9,5,15,0.00
2013-8-19,77,65,55,46,31,-100,68,37,23,0.00,40.00,6,4,10,0.00
2013-8-20,73,65,58,39,31,-100,48,31,20,0.00,40.00,7,4,10,0.00
2013-8-21,72,63,57,42,38,32,54,40,25,0.00,40.00,7,4,10,0.00
2013-8-22,71,61,55,54,46,38,91,60,33,0.00,40.00,8,4,10,0.05
2013-8-23,78,68,59,46,40,30,62,38,18,0.00,40.00,11,6,17,0.03
2013-8-24,67,59,53,52,45,-100,81,63,48,0.00,40.00,5,3,17,0.14
2013-8-25,75,63,53,46,40,35,70,46,23,0.00,40.00,11,4,16,0.00
2013-8-26,76,65,60,45,38,31,53,38,23,0.00,40.00,13,5,19,0.00
2013-8-27,70,63,57,43,40,37,54,43,31,0.00,40.00,6,4,10,0.00
2013-8-28,77,70,61,45,40,35,47,35,26,0.00,40.00,8,5,13,0.02
2013-8-29,74,66,55,45,41,37,66,42,31,0.00,40.00,6,4,12,0.02
2013-8-30,80,66,55,43,35,24,61,36,13,0.00,40.00,8,4,17,0.01
2013-8-31,65,58,48,41,36,-100,66,45,33,0.00,40.00,8,4,10,0.00
2013-9-1,73,61,47,39,35,31,72,41,24,0.00,40.00,7,4,10,0.00
2013-9-2,76,64,52,53,39,23,88,43,22,0.00,40.00,10,6,19,0.05
2013-9-3,72,64,56,51,48,46,78,59,42,0.00,40.00,5,4,9,0.05
2013-9-4,79,66,55,49,45,39,74,48,26,0.00,40.00,8,4,15,0.00
2013-9-5,79,68,57,48,41,34,72,40,23,0.00,40.00,8,5,12,0.00
2013-9-6,76,67,58,47,42,35,53,40,28,0.00,40.00,8,5,11,0.00
2013-9-7,73,63,55,51,45,-100,75,54,39,0.00,40.00,7,4,24,0.29
2013-9-8,64,56,49,54,49,42,97,79,59,0.00,40.00,8,4,13,0.30
2013-9-9,56,50,45,47,42,38,92,76,64,0.00,40.00,5,3,7,0.00
2013-9-10,60,52,42,44,41,37,83,68,51,0.00,40.00,5,3,9,0.00
2013-9-11,64,55,45,42,37,34,77,53,38,0.00,40.00,6,4,9,0.00
2013-9-12,60,52,45,47,41,36,80,66,46,0.00,40.00,11,5,16,0.02
2013-9-13,65,53,48,53,47,43,98,81,51,0.00,40.00,8,4,15,0.06
2013-9-14,56,49,44,51,44,-100,98,88,65,0.00,40.00,8,4,13,0.51
2013-9-15,56,50,45,48,44,37,99,82,61,0.00,40.00,9,5,12,0.47
2013-9-16,67,57,45,47,41,33,73,56,41,0.00,40.00,6,3,10,0.01
2013-9-17,70,59,50,44,37,29,77,48,27,0.00,40.00,10,7,19,0.08
2013-9-18,51,45,41,42,37,20,85,73,40,0.00,40.00,12,6,20,0.25
2013-9-19,47,37,31,38,32,22,98,82,53,0.00,40.00,6,3,9,0.01
2013-9-20,60,47,34,36,26,7,79,47,18,0.00,40.00,4,3,7,0.01
2013-9-21,67,60,51,25,18,-100,26,20,15,0.00,40.00,16,8,20,0.00
2013-9-22,64,55,45,35,29,18,59,38,21,0.00,40.00,10,6,22,0.00
2013-9-23,54,45,38,41,32,22,96,65,30,0.00,40.00,9,4,14,0.04
2013-9-24,59,52,38,27,22,16,52,33,20,0.00,40.00,19,10,27,0.02
2013-9-25,52,43,33,37,32,21,97,67,36,0.00,40.00,9,4,15,0.21
2013-9-26,35,31,27,34,30,27,99,96,75,0.00,40.00,9,3,14,0.22
2013-9-27,33,27,22,31,26,21,99,96,86,0.00,40.00,4,2,7,0.01
2013-9-28,44,36,24,28,21,-100,84,57,45,0.00,40.00,20,9,26,0.53
2013-9-29,49,45,41,31,26,22,59,48,40,0.00,40.00,14,6,23,0.02
2013-9-30,55,47,41,35,32,27,61,55,47,0.00,40.00,23,13,36,0.02
2013-10-1,53,44,38,31,26,25,66,51,33,0.00,40.00,5,3,16,0.01
2013-10-2,43,36,28,32,30,26,99,78,52,0.00,40.00,5,3,7,0.01
2013-10-3,33,30,25,31,29,24,99,96,90,0.00,40.00,4,3,7,0.00
2013-10-4,27,23,20,23,18,14,97,83,62,0.00,40.00,11,5,18,0.00
2013-10-5,45,30,17,30,18,7,82,63,34,0.00,40.00,4,3,19,0.13
2013-10-6,56,44,33,39,27,8,64,51,22,0.00,40.00,6,3,14,0.03
2013-10-7,62,54,46,18,12,5,31,20,10,0.00,40.00,10,6,16,0.00
2013-10-8,51,43,32,33,24,10,90,51,21,0.00,40.00,5,3,14,0.00
2013-10-9,49,36,32,37,29,23,91,77,59,0.00,40.00,10,4,14,0.00
2013-10-10,50,40,32,34,28,22,84,65,36,0.00,40.00,9,4,16,0.00
2013-10-11,38,33,23,30,20,10,89,61,39,0.00,40.00,11,6,19,0.00
2013-10-12,38,29,22,26,19,-100,86,68,42,0.00,40.00,6,3,8,0.00
2013-10-13,43,35,31,32,26,17,99,72,48,0.00,40.00,9,4,13,0.00
2013-10-14,32,27,20,32,23,13,100,84,62,0.00,40.00,8,4,17,0.00
2013-10-15,34,23,19,21,17,-1,96,79,39,0.00,40.00,6,3,11,0.00
2013-10-16,42,29,19,21,9,-4,86,47,15,0.00,40.00,5,3,9,0.03
2013-10-17,25,22,20,24,21,14,98,94,89,0.00,40.00,5,3,11,0.02
2013-10-18,33,24,14,24,16,7,95,73,51,0.00,40.00,11,4,20,0.00
2013-10-19,46,34,26,23,17,-100,67,53,35,0.00,40.00,5,3,8,0.11
2013-10-20,35,30,27,29,20,14,98,65,46,0.00,40.00,14,7,23,0.01
2013-10-21,42,37,32,31,24,15,69,59,50,0.00,40.00,13,7,24,0.01
2013-10-22,46,39,33,33,28,21,83,65,41,0.00,40.00,7,4,13,0.00
2013-10-23,44,37,29,33,26,17,97,65,46,0.00,40.00,5,3,7,0.00
2013-10-24,44,35,29,34,27,20,91,73,57,0.00,40.00,5,3,7,0.00
2013-10-25,54,42,33,29,22,15,77,47,27,0.00,40.00,5,4,7,0.00
2013-10-26,52,40,32,25,18,-100,65,44,19,0.00,40.00,12,4,17,0.00
2013-10-27,48,40,30,23,20,12,74,46,25,0.00,40.00,8,5,16,0.00
2013-10-28,32,24,17,26,21,-100,99,93,74,0.00,40.00,5,3,8,0.00
2013-10-29,40,27,16,28,21,15,98,81,56,0.00,40.00,12,5,18,0.14
2013-10-30,38,26,20,28,21,16,98,81,57,0.00,40.00,5,3,12,0.02
2013-10-31,38,29,20,24,18,12,88,66,47,0.00,40.00,12,5,20,0.00
2013-11-1,34,27,21,17,13,8,81,56,37,0.00,40.00,14,7,22,0.00
2013-11-2,53,35,22,16,7,-100,71,37,9,0.00,40.00,16,7,26,0.01
2013-11-3,42,28,17,25,17,7,97,71,29,0.00,40.00,18,6,26,0.01
2013-11-4,23,14,8,17,10,3,92,82,59,0.00,40.00,5,3,12,0.00
2013-11-5,23,14,6,14,5,-2,92,69,35,0.00,40.00,10,4,17,0.00
2013-11-6,29,25,19,17,11,3,76,55,46,0.00,40.00,10,6,15,0.00
2013-11-7,43,32,19,25,20,15,90,63,43,0.00,40.00,18,7,27,0.00
2013-11-8,37,32,26,27,18,9,77,56,33,0.00,40.00,18,9,27,0.01
2013-11-9,36,26,22,24,20,15,92,80,53,0.00,40.00,9,3,15,0.00
2013-11-10,47,43,37,24,23,18,54,44,39,0.00,40.00,15,9,21,0.00
2013-11-11,43,31,25,29,24,12,99,79,39,0.00,40.00,9,3,16,0.00
2013-11-12,55,44,26,14,6,-5,56,24,11,0.00,40.00,7,4,13,0.00
2013-11-13,49,40,30,28,22,15,90,51,29,0.00,40.00,13,5,19,0.00
2013-11-14,33,27,22,25,19,2,96,75,30,0.00,40.00,7,3,12,0.00
2013-11-15,35,28,22,19,10,4,78,47,32,0.00,40.00,12,5,18,0.00
2013-11-16,32,24,19,18,12,-100,87,60,37,0.00,40.00,19,7,26,0.00
2013-11-17,25,20,16,19,7,3,94,58,45,0.00,40.00,14,7,21,0.00
2013-11-18,45,36,19,12,7,4,54,31,19,0.00,40.00,11,7,20,0.00
2013-11-19,42,37,35,20,14,4,51,38,25,0.00,40.00,12,6,18,0.00
2013-11-20,42,26,7,20,14,5,96,63,36,0.00,40.00,11,5,16,0.00
2013-11-21,18,8,4,8,2,-17,91,78,33,0.00,40.00,3,2,6,0.00
2013-11-22,26,17,11,0,-6,-16,55,37,21,0.00,40.00,5,3,8,0.00
2013-11-23,38,24,11,9,2,-10,55,40,19,0.00,40.00,4,2,6,0.01
2013-11-24,43,33,25,17,4,-14,56,31,14,0.00,40.00,13,4,20,0.01
2013-11-25,33,26,19,19,15,9,84,62,48,0.00,40.00,8,3,13,0.00
2013-11-26,38,30,26,22,15,10,62,53,40,0.00,40.00,10,3,16,0.00
2013-11-27,43,35,25,19,13,6,73,44,24,0.00,40.00,11,4,18,0.00
2013-11-28,45,34,24,18,13,9,68,45,27,0.00,40.00,6,3,13,0.00
2013-11-29,43,37,33,16,12,7,45,35,27,0.00,40.00,10,6,16,0.00
2013-11-30,34,29,23,20,15,-100,82,59,39,0.00,40.00,5,3,13,0.00
2013-12-1,34,31,27,25,19,16,75,60,48,0.00,40.00,14,7,24,0.00
2013-12-2,38,32,21,26,23,20,98,71,49,0.00,40.00,16,10,26,0.00
2013-12-3,21,2,-8,20,0,-12,96,88,81,0.00,40.00,3,2,7,0.00
2013-12-4,0,-10,-16,-7,-15,-21,84,78,66,0.00,40.00,3,2,6,0.00
2013-12-5,-3,-14,-20,-11,-18,-25,84,78,67,0.00,40.00,4,2,6,0.00
2013-12-6,-4,-14,-20,-15,-21,-25,79,70,47,0.00,40.00,3,2,5,0.00
2013-12-7,12,-1,-13,0,-10,-100,83,69,53,0.00,40.00,5,3,11,0.00
2013-12-8,2,-6,-14,-4,-11,-19,85,78,39,0.00,40.00,4,3,11,0.00
2013-12-9,14,4,-12,4,-8,-28,71,56,38,0.00,40.00,18,9,25,0.00
2013-12-10,17,10,0,3,0,-4,91,64,42,0.00,40.00,18,8,25,0.00
2013-12-11,28,14,1,5,-4,-9,87,47,24,0.00,40.00,7,3,20,0.00
2013-12-12,44,34,28,15,9,3,49,36,28,0.00,40.00,11,5,20,0.00
2013-12-13,29,21,15,18,13,8,96,71,41,0.00,40.00,5,3,7,0.00
2013-12-14,34,24,14,18,12,-100,86,64,48,0.00,40.00,11,3,17,0.00
2013-12-15,42,36,31,18,10,1,56,35,18,0.00,40.00,16,12,26,0.00
2013-12-16,35,32,31,13,10,8,44,40,34,0.00,40.00,15,12,25,0.00
2013-12-17,44,38,26,17,11,4,58,34,19,0.00,40.00,17,13,27,0.00
2013-12-18,44,36,24,16,11,3,72,38,19,0.00,40.00,20,9,29,0.00
2013-12-19,26,15,5,16,10,2,94,80,56,0.00,40.00,5,2,6,0.00
2013-12-20,20,13,4,7,0,-4,82,59,40,0.00,40.00,5,3,15,0.00
2013-12-21,19,13,10,11,5,-100,92,73,52,0.00,40.00,4,2,8,0.00
2013-12-22,13,9,6,9,5,-2,91,82,53,0.00,40.00,14,5,21,0.00
2013-12-23,36,22,5,23,11,-4,77,62,46,0.00,40.00,21,6,29,0.02
2013-12-24,32,21,11,22,12,6,93,68,49,0.00,40.00,24,8,29,0.01
2013-12-25,35,22,9,12,6,-8,81,56,16,0.00,40.00,7,3,16,0.00
2013-12-26,39,33,27,22,15,10,60,49,37,0.00,40.00,12,6,24,0.00
2013-12-27,49,39,33,25,16,2,61,42,23,0.00,40.00,15,5,19,0.00
2013-12-28,41,26,6,20,6,-100,90,51,16,0.00,40.00,14,8,21,0.00
2013-12-29,26,19,8,12,4,-4,68,52,40,0.00,40.00,12,5,21,0.00
2013-12-30,29,25,20,17,10,5,81,55,39,0.00,40.00,17,9,25,0.00
2013-12-31,32,28,19,23,17,13,97,64,51,0.00,40.00,17,10,25,0.00
2014-1-1,22,16,10,18,11,3,96,81,47,0.00,40.00,11,4,16,0.00
2014-1-2,36,25,12,21,10,0,65,53,32,0.00,40.00,10,4,19,0.00